Time;durP1;ratioP1;P1;durP2;ratioP2;P2;SDS_P1;SDS_P2;PMS_P1;PMS_P2;Temp;Humidity;BMP_temperature;BMP_pressure;BME280_temperature;BME280_humidity;BME280_pressure;Samples;Min_cycle;Max_cycle;Signal;HPM_P1;HPM_P2
2022/11/22 00:04:19;;;;;;;2.05;0.70;;;18.90;62.10;;;;;;10362221;28;20451;-30
2022/11/22 00:09:20;;;;;;;2.85;0.70;;;18.90;62.10;;;;;;10362103;28;20061;-29
2022/11/22 00:14:22;;;;;;;3.38;1.15;;;18.80;62.60;;;;;;10364534;28;20065;-30
2022/11/22 00:19:26;;;;;;;2.28;0.98;;;18.90;62.10;;;;;;10366286;28;20092;-29
2022/11/22 00:24:28;;;;;;;5.20;1.00;;;18.70;62.80;;;;;;10366213;28;20096;-30
2022/11/22 00:29:29;;;;;;;2.42;0.80;;;18.80;62.40;;;;;;10366169;28;20053;-29
2022/11/22 00:34:33;;;;;;;1.77;0.90;;;18.80;62.10;;;;;;10360549;28;20499;-29
2022/11/22 00:39:35;;;;;;;1.35;0.70;;;18.70;62.40;;;;;;10362198;28;20518;-29
2022/11/22 00:44:37;;;;;;;1.95;0.93;;;18.70;62.40;;;;;;10368552;28;20137;-31
2022/11/22 00:49:40;;;;;;;0.90;0.57;;;18.70;62.20;;;;;;10366726;28;20041;-27
2022/11/22 00:54:44;;;;;;;5.43;1.02;;;18.70;62.50;;;;;;10365226;28;20147;-34
2022/11/22 00:59:46;;;;;;;2.70;0.80;;;18.70;62.30;;;;;;10363058;28;20057;-29
2022/11/22 01:04:49;;;;;;;4.68;1.00;;;18.70;62.50;;;;;;10366004;28;20144;-27
2022/11/22 01:09:51;;;;;;;1.77;0.80;;;18.50;62.50;;;;;;10366615;28;20072;-28
2022/11/22 01:14:53;;;;;;;2.20;0.63;;;18.60;62.60;;;;;;10365538;28;20198;-30
2022/11/22 01:19:56;;;;;;;4.18;0.93;;;18.70;62.20;;;;;;10355703;28;20046;-29
2022/11/22 01:24:58;;;;;;;2.10;0.80;;;18.60;62.30;;;;;;10357966;28;20050;-30
2022/11/22 01:29:59;;;;;;;2.20;1.00;;;18.50;62.90;;;;;;10356779;28;20144;-29
2022/11/22 01:35:03;;;;;;;1.33;0.97;;;18.10;64.10;;;;;;10367040;28;20050;-34
2022/11/22 01:40:06;;;;;;;2.70;0.95;;;18.40;63.10;;;;;;10355679;28;20450;-34
2022/11/22 01:45:43;;;;;;;4.28;1.02;;;18.50;62.60;;;;;;10364785;28;20494;-26
2022/11/22 01:50:51;;;;;;;6.32;1.15;;;18.40;62.90;;;;;;10349540;28;20486;-31
2022/11/22 01:55:54;;;;;;;3.28;1.02;;;17.70;64.50;;;;;;10360913;28;20062;-27
2022/11/22 02:00:57;;;;;;;3.63;1.05;;;17.70;65.30;;;;;;10358385;28;20104;-29
2022/11/22 02:06:01;;;;;;;3.13;0.95;;;18.20;64.10;;;;;;10356187;28;20069;-27
2022/11/22 02:11:04;;;;;;;4.72;1.30;;;18.40;63.00;;;;;;10353547;28;20049;-29
2022/11/22 02:16:06;;;;;;;;;;;18.30;63.80;;;;;;10361418;28;20124;-30
2022/11/22 02:21:10;;;;;;;6.15;1.33;;;18.00;64.10;;;;;;10362813;28;20007;-29
2022/11/22 02:26:14;;;;;;;1.40;0.90;;;17.70;65.10;;;;;;10373366;28;20049;-32
2022/11/22 02:31:37;;;;;;;2.53;0.80;;;17.70;66.20;;;;;;10359498;28;20038;-29
2022/11/22 02:36:43;;;;;;;7.53;1.33;;;17.80;64.40;;;;;;10356049;28;20176;-33
2022/11/22 02:41:48;;;;;;;2.75;0.75;;;17.90;64.40;;;;;;10364978;28;20483;-29
2022/11/22 02:46:52;;;;;;;3.72;1.80;;;17.60;65.20;;;;;;10361498;28;20069;-36
2022/11/22 02:51:54;;;;;;;9.38;1.75;;;16.80;66.70;;;;;;10359686;28;20132;-32
2022/11/22 02:56:57;;;;;;;6.32;1.33;;;15.90;65.60;;;;;;10359576;28;20092;-30
2022/11/22 03:01:59;;;;;;;4.97;1.08;;;16.70;69.00;;;;;;10355975;28;20054;-30
2022/11/22 03:07:01;;;;;;;1.93;0.97;;;16.90;70.40;;;;;;10362396;28;20073;-30
2022/11/22 03:12:05;;;;;;;2.47;1.02;;;17.50;66.20;;;;;;10354537;28;20078;-26
2022/11/22 03:17:07;;;;;;;2.33;0.73;;;16.80;71.00;;;;;;10359682;28;20081;-30
2022/11/22 03:22:08;;;;;;;7.60;1.33;;;16.80;69.80;;;;;;10363323;28;20494;-33
2022/11/22 03:27:12;;;;;;;3.33;0.80;;;16.40;68.20;;;;;;10365184;28;20128;-28
2022/11/22 03:32:13;;;;;;;2.58;0.93;;;16.20;73.90;;;;;;10371203;28;20092;-29
2022/11/22 03:37:15;;;;;;;2.70;0.70;;;16.30;73.80;;;;;;10366921;28;20135;-31
2022/11/22 03:42:18;;;;;;;3.80;1.00;;;16.40;67.20;;;;;;10361223;28;20096;-29
2022/11/22 03:47:20;;;;;;;1.77;0.77;;;17.10;66.50;;;;;;10368777;28;20042;-31
2022/11/22 03:52:22;;;;;;;2.50;0.90;;;17.20;67.00;;;;;;10359263;28;20112;-31
2022/11/22 03:57:25;;;;;;;3.07;1.07;;;16.30;69.40;;;;;;10372563;28;20533;-28
2022/11/22 04:02:27;;;;;;;1.70;0.57;;;16.10;70.10;;;;;;10356540;28;20146;-27
2022/11/22 04:07:29;;;;;;;2.88;0.95;;;17.80;64.20;;;;;;10369552;28;20115;-31
2022/11/22 04:12:32;;;;;;;4.47;1.03;;;17.80;63.70;;;;;;10369776;28;20070;-32
2022/11/22 04:17:42;;;;;;;1.55;0.75;;;17.70;63.30;;;;;;10375332;28;20552;-31
2022/11/22 04:22:43;;;;;;;1.58;0.55;;;18.00;62.50;;;;;;10376789;28;20486;-34
2022/11/22 04:27:47;;;;;;;3.13;0.97;;;18.00;62.00;;;;;;10373760;28;20050;-29
2022/11/22 04:32:48;;;;;;;4.78;1.00;;;18.10;61.70;;;;;;10358371;28;20538;-35
2022/11/22 04:37:51;;;;;;;4.00;0.87;;;17.80;62.40;;;;;;10366259;28;20085;-36
2022/11/22 04:48:14;;;;;;;2.33;0.70;;;17.90;62.20;;;;;;10353799;28;20298;-30
2022/11/22 04:53:16;;;;;;;3.75;0.70;;;17.90;62.50;;;;;;10364398;28;20392;-31
2022/11/22 04:58:20;;;;;;;2.25;0.70;;;17.50;64.40;;;;;;10370691;28;20137;-29
2022/11/22 05:03:22;;;;;;;1.50;0.68;;;17.60;63.70;;;;;;10369266;28;20475;-30
2022/11/22 05:08:24;;;;;;;1.60;0.70;;;17.80;62.40;;;;;;10370854;28;20046;-31
2022/11/22 05:13:30;;;;;;;1.83;0.80;;;17.90;61.80;;;;;;10361559;28;20132;-31
2022/11/22 05:18:33;;;;;;;3.67;1.25;;;17.70;62.30;;;;;;10364246;28;20085;-32
2022/11/22 05:28:56;;;;;;;3.08;0.50;;;17.40;64.40;;;;;;10354814;28;20393;-28
2022/11/22 05:33:58;;;;;;;2.85;0.57;;;17.80;62.90;;;;;;10354189;28;20042;-30
2022/11/22 05:39:00;;;;;;;4.73;0.80;;;17.10;64.80;;;;;;10363005;28;20108;-29
2022/11/22 05:44:04;;;;;;;2.58;0.95;;;17.10;62.70;;;;;;10357773;28;20077;-32
2022/11/22 05:49:06;;;;;;;2.53;0.82;;;17.40;63.40;;;;;;10361255;28;20051;-31
2022/11/22 05:54:08;;;;;;;2.77;0.60;;;17.20;64.80;;;;;;10353513;28;20051;-29
2022/11/22 05:59:12;;;;;;;1.25;0.40;;;17.20;65.10;;;;;;10363439;28;20050;-29
2022/11/22 06:04:13;;;;;;;2.17;0.60;;;18.00;62.00;;;;;;10358695;28;20494;-30
2022/11/22 06:09:15;;;;;;;1.70;0.67;;;17.80;62.80;;;;;;10360407;28;20533;-29
2022/11/22 06:14:19;;;;;;;2.30;0.80;;;18.10;61.50;;;;;;10364120;28;20568;-31
2022/11/22 06:19:21;;;;;;;1.15;0.50;;;18.20;60.80;;;;;;10359463;28;20105;-28
2022/11/22 06:24:23;;;;;;;5.13;0.85;;;18.20;61.40;;;;;;10361147;28;20423;-31
2022/11/22 06:29:26;;;;;;;1.90;1.00;;;18.30;61.10;;;;;;10357561;28;20534;-26
2022/11/22 06:34:28;;;;;;;1.73;0.60;;;18.30;61.20;;;;;;10365807;28;20480;-29
2022/11/22 06:39:30;;;;;;;1.55;0.80;;;18.30;61.40;;;;;;10360218;28;20057;-30
2022/11/22 06:44:33;;;;;;;3.53;1.02;;;17.90;61.60;;;;;;10362689;28;20127;-30
2022/11/22 06:49:35;;;;;;;2.22;0.68;;;18.10;62.60;;;;;;10355158;28;20052;-30
2022/11/22 06:54:37;;;;;;;1.02;0.50;;;18.30;62.40;;;;;;10358706;28;20049;-32
2022/11/22 06:59:40;;;;;;;2.90;0.70;;;18.20;63.00;;;;;;10348905;28;20056;-32
2022/11/22 07:15:29;;;;;;;5.95;1.45;;;18.30;62.00;;;;;;10571233;27;20136;-29
2022/11/22 07:20:31;;;;;;;4.32;0.90;;;18.30;62.70;;;;;;10606187;27;20067;-29
2022/11/22 07:25:33;;;;;;;1.52;0.77;;;18.10;63.50;;;;;;10612735;27;20494;-30
2022/11/22 07:30:36;;;;;;;1.95;1.23;;;18.40;62.60;;;;;;10608038;27;20048;-30
2022/11/22 07:35:38;;;;;;;3.38;0.82;;;18.40;62.60;;;;;;10608968;27;20545;-29
2022/11/22 07:40:40;;;;;;;3.88;0.80;;;18.30;61.30;;;;;;10607341;28;20066;-29
2022/11/22 07:45:43;;;;;;;3.73;1.23;;;18.30;63.20;;;;;;10606872;27;20131;-30
2022/11/22 07:50:45;;;;;;;4.28;1.05;;;18.50;62.50;;;;;;10602280;27;20108;-30
2022/11/22 07:55:47;;;;;;;2.63;0.70;;;18.10;62.80;;;;;;10610083;27;20040;-29
2022/11/22 08:00:51;;;;;;;1.70;0.70;;;18.10;62.40;;;;;;10615134;27;20071;-31
2022/11/22 08:05:59;;;;;;;6.72;0.80;;;18.30;62.90;;;;;;10603857;27;20048;-31
2022/11/22 08:11:01;;;;;;;7.53;1.33;;;18.00;60.10;;;;;;10605646;27;20059;-28
2022/11/22 08:16:06;;;;;;;3.92;1.00;;;17.90;64.40;;;;;;10607199;27;20088;-32
2022/11/22 08:21:10;;;;;;;1.83;0.73;;;18.20;63.40;;;;;;10605760;27;20121;-29
2022/11/22 08:26:14;;;;;;;2.85;0.82;;;17.70;64.70;;;;;;10581874;28;20485;-29
2022/11/22 08:31:19;;;;;;;2.72;0.70;;;18.10;63.10;;;;;;10578558;27;20128;-32
2022/11/22 08:36:21;;;;;;;1.75;0.80;;;17.10;68.10;;;;;;10574393;27;20052;-30
2022/11/22 08:41:23;;;;;;;4.50;1.10;;;18.20;63.10;;;;;;10579464;27;20051;-29
2022/11/22 08:46:26;;;;;;;0.70;0.60;;;17.90;61.60;;;;;;10585527;27;20127;-29
2022/11/22 08:51:29;;;;;;;7.00;1.10;;;17.90;60.90;;;;;;10575092;27;20535;-31
2022/11/22 08:56:31;;;;;;;2.63;1.10;;;17.90;63.00;;;;;;10573409;27;20071;-30
2022/11/22 09:01:34;;;;;;;4.15;1.10;;;17.90;62.40;;;;;;10573345;28;20116;-32
2022/11/22 09:06:37;;;;;;;1.67;0.80;;;17.70;64.00;;;;;;10576858;28;20071;-34
2022/11/22 09:11:39;;;;;;;2.42;0.80;;;18.10;62.20;;;;;;10580140;27;20058;-30
2022/11/22 09:16:43;;;;;;;0.85;0.70;;;18.20;61.80;;;;;;10574733;28;20058;-32
2022/11/22 09:21:44;;;;;;;4.50;0.90;;;18.20;61.80;;;;;;10583039;27;21188;-30
2022/11/22 09:26:47;;;;;;;2.05;0.90;;;18.00;62.40;;;;;;10576058;27;20130;-32
2022/11/22 09:31:50;;;;;;;3.17;1.42;;;17.90;62.30;;;;;;10577935;27;20490;-33
2022/11/22 09:36:52;;;;;;;3.10;1.00;;;18.00;62.40;;;;;;10571236;27;20071;-36
2022/11/22 09:42:13;;;;;;;1.05;0.70;;;18.10;61.70;;;;;;10573648;28;20130;-32
2022/11/22 09:47:28;;;;;;;1.70;0.70;;;18.10;61.90;;;;;;10575477;27;20442;-31
2022/11/22 09:52:35;;;;;;;5.38;0.90;;;17.90;62.80;;;;;;10572043;28;20067;-32
2022/11/22 09:57:42;;;;;;;3.42;1.05;;;18.20;61.30;;;;;;10575535;27;20154;-32
2022/11/22 10:02:49;;;;;;;6.75;0.90;;;18.10;61.70;;;;;;10576787;27;20125;-31
2022/11/22 10:07:57;;;;;;;3.25;0.85;;;18.20;61.40;;;;;;10573441;27;20093;-29
2022/11/22 10:13:05;;;;;;;3.80;0.90;;;18.10;61.50;;;;;;10572417;27;20055;-31
2022/11/22 10:18:17;;;;;;;2.38;0.98;;;18.10;61.30;;;;;;10583409;27;20047;-29
2022/11/22 10:23:23;;;;;;;1.15;0.60;;;18.00;60.70;;;;;;10572401;28;20065;-27
2022/11/22 10:28:33;;;;;;;2.25;0.90;;;18.10;61.40;;;;;;10570605;27;20039;-29
2022/11/22 10:33:42;;;;;;;5.40;1.10;;;18.20;61.00;;;;;;10575530;27;20138;-28
2022/11/22 10:39:19;;;;;;;4.13;0.95;;;18.20;60.90;;;;;;10572907;27;20097;-29
2022/11/22 10:44:29;;;;;;;3.38;0.98;;;18.10;61.00;;;;;;10569805;28;20069;-29
2022/11/22 10:49:47;;;;;;;4.47;1.42;;;18.00;61.50;;;;;;10565634;28;20101;-29
2022/11/22 10:54:57;;;;;;;2.22;0.63;;;18.20;60.70;;;;;;10566152;28;20082;-28
2022/11/22 11:00:19;;;;;;;3.33;0.80;;;18.20;60.30;;;;;;10571358;27;20723;-32
2022/11/22 11:05:29;;;;;;;2.15;0.80;;;18.20;60.70;;;;;;10565947;28;20571;-30
2022/11/22 11:10:36;;;;;;;2.60;1.02;;;17.90;61.40;;;;;;10572268;28;20048;-30
2022/11/22 11:15:42;;;;;;;4.57;1.40;;;18.10;60.50;;;;;;10569667;28;20762;-30
2022/11/22 11:20:46;;;;;;;2.38;1.05;;;18.10;60.50;;;;;;10571396;28;20325;-30
2022/11/22 11:25:51;;;;;;;4.78;1.08;;;18.00;61.10;;;;;;10572311;28;20408;-30
2022/11/22 11:30:56;;;;;;;1.33;0.60;;;18.20;60.60;;;;;;10573879;28;20039;-35
2022/11/22 11:36:05;;;;;;;1.80;0.70;;;18.20;60.70;;;;;;10568691;28;20052;-33
2022/11/22 11:41:20;;;;;;;3.25;0.68;;;18.10;60.90;;;;;;10565218;28;20516;-31
2022/11/22 11:46:24;;;;;;;1.70;0.70;;;17.80;61.10;;;;;;10567356;28;20073;-30
2022/11/22 11:51:37;;;;;;;2.38;0.65;;;18.10;60.50;;;;;;10564543;28;20043;-34
2022/11/22 11:56:50;;;;;;;1.13;0.77;;;18.10;60.70;;;;;;10565588;28;20075;-36
2022/11/22 12:01:56;;;;;;;5.20;0.90;;;18.10;61.00;;;;;;10581179;27;20036;-32
2022/11/22 12:07:03;;;;;;;3.28;0.90;;;18.10;60.40;;;;;;10574612;27;20428;-31
2022/11/22 12:12:35;;;;;;;5.65;0.80;;;18.20;60.10;;;;;;10575296;27;20058;-30
2022/11/22 12:17:46;;;;;;;2.15;0.63;;;18.20;60.10;;;;;;10575195;27;20060;-31
2022/11/22 12:23:01;;;;;;;3.28;0.98;;;18.20;60.80;;;;;;10571884;28;20104;-31
2022/11/22 12:28:12;;;;;;;3.95;0.88;;;18.10;60.10;;;;;;10577739;27;20039;-29
2022/11/22 12:33:19;;;;;;;6.72;0.60;;;18.10;60.30;;;;;;10571073;28;20201;-29
2022/11/22 12:38:27;;;;;;;1.92;0.75;;;18.10;60.50;;;;;;10576395;27;20047;-34
2022/11/22 12:43:36;;;;;;;2.13;0.75;;;18.20;59.90;;;;;;10571305;27;20067;-29
2022/11/22 12:48:42;;;;;;;6.70;0.65;;;18.00;60.40;;;;;;10568854;28;20157;-31
2022/11/22 12:53:47;;;;;;;4.80;0.65;;;18.10;60.10;;;;;;10570759;27;20078;-30
2022/11/22 12:58:55;;;;;;;4.53;1.02;;;18.20;59.80;;;;;;10573574;28;20052;-31
2022/11/22 13:04:04;;;;;;;4.32;0.80;;;18.20;59.90;;;;;;10572607;27;20130;-29
2022/11/22 13:09:12;;;;;;;4.45;1.38;;;18.10;59.60;;;;;;10575357;27;20075;-29
2022/11/22 13:14:17;;;;;;;0.88;0.52;;;18.10;60.20;;;;;;10568297;28;20140;-28
2022/11/22 13:19:23;;;;;;;2.13;0.57;;;18.30;60.10;;;;;;10570939;27;20151;-31
2022/11/22 13:24:36;;;;;;;1.65;0.52;;;18.40;60.10;;;;;;10569132;27;20040;-29
2022/11/22 13:29:41;;;;;;;1.27;0.60;;;18.20;60.30;;;;;;10568848;27;20148;-28
2022/11/22 13:35:00;;;;;;;2.78;0.43;;;18.60;59.50;;;;;;10572938;27;20492;-30
2022/11/22 13:40:22;;;;;;;5.65;0.77;;;18.80;59.50;;;;;;10583168;27;20770;-30
2022/11/22 13:45:25;;;;;;;1.23;0.50;;;18.80;59.30;;;;;;10580095;27;20039;-29
2022/11/22 13:51:00;;;;;;;2.22;0.80;;;18.70;59.00;;;;;;10568749;28;20043;-29
2022/11/22 13:56:39;;;;;;;6.18;0.70;;;18.50;59.60;;;;;;10567365;27;20385;-29
2022/11/22 14:02:01;;;;;;;1.42;0.50;;;18.80;59.70;;;;;;10567614;27;20116;-29
2022/11/22 14:07:06;;;;;;;1.67;0.80;;;18.80;59.70;;;;;;10575381;27;20067;-27
2022/11/22 14:12:30;;;;;;;6.45;0.80;;;18.80;60.00;;;;;;10573424;27;20090;-30
2022/11/22 14:17:38;;;;;;;4.65;0.82;;;19.10;58.90;;;;;;10571203;28;20047;-31
2022/11/22 14:22:49;;;;;;;4.57;0.75;;;19.10;58.80;;;;;;10571767;27;20036;-30
2022/11/22 14:28:01;;;;;;;5.18;0.88;;;19.30;58.60;;;;;;10572054;27;20144;-30
2022/11/22 14:33:13;;;;;;;2.60;1.35;;;19.20;58.80;;;;;;10573604;27;20452;-30
2022/11/22 14:38:30;;;;;;;4.70;0.60;;;19.30;58.00;;;;;;10571136;28;20492;-32
2022/11/22 14:43:37;;;;;;;5.57;0.57;;;19.30;58.00;;;;;;10570872;28;20100;-29
2022/11/22 14:48:49;;;;;;;2.40;0.65;;;19.40;57.50;;;;;;10572253;28;20085;-30
2022/11/22 14:53:54;;;;;;;1.73;0.85;;;19.30;57.30;;;;;;10568925;28;20565;-29
2022/11/22 14:59:05;;;;;;;8.90;1.08;;;19.30;57.10;;;;;;10566718;28;20126;-29
2022/11/22 15:04:42;;;;;;;2.75;0.77;;;19.30;57.10;;;;;;10565781;27;20075;-34
2022/11/22 15:09:58;;;;;;;0.80;0.47;;;19.30;57.30;;;;;;10560492;27;20040;-30
2022/11/22 15:15:32;;;;;;;0.63;0.60;;;19.40;57.10;;;;;;10572803;28;20095;-34
2022/11/22 15:20:37;;;;;;;2.65;1.15;;;19.20;57.40;;;;;;10571762;28;20044;-33
2022/11/22 15:25:40;;;;;;;3.40;0.70;;;19.40;57.20;;;;;;10565396;28;20043;-34
2022/11/22 15:30:42;;;;;;;2.67;0.40;;;19.40;57.10;;;;;;10580098;28;20071;-32
2022/11/22 15:35:57;;;;;;;3.85;0.57;;;19.40;57.10;;;;;;10575466;27;20134;-31
2022/11/22 15:41:03;;;;;;;2.53;0.70;;;19.50;57.00;;;;;;10578734;28;20097;-33
2022/11/22 15:46:06;;;;;;;1.42;0.57;;;19.60;56.90;;;;;;10579172;27;20085;-31
2022/11/22 15:51:25;;;;;;;0.88;0.63;;;19.60;56.70;;;;;;10575522;28;20405;-28
2022/11/22 15:56:34;;;;;;;1.98;1.20;;;19.60;56.70;;;;;;10570946;27;20052;-29
2022/11/22 16:01:39;;;;;;;2.45;1.23;;;19.80;56.80;;;;;;10577689;27;20047;-29
2022/11/22 16:06:43;;;;;;;1.67;0.77;;;19.70;56.50;;;;;;10574386;27;20101;-31
2022/11/22 16:11:47;;;;;;;3.17;1.15;;;19.70;56.50;;;;;;10577013;27;20108;-31
2022/11/22 16:16:49;;;;;;;2.30;0.68;;;19.80;56.30;;;;;;10579204;27;20047;-34
2022/11/22 16:21:59;;;;;;;2.88;1.00;;;19.80;56.20;;;;;;10577845;28;20488;-34
2022/11/22 16:27:05;;;;;;;1.70;0.70;;;19.70;56.30;;;;;;10577107;27;20483;-30
2022/11/22 16:32:12;;;;;;;1.45;0.68;;;19.80;56.30;;;;;;10577572;27;20499;-36
2022/11/22 16:37:26;;;;;;;1.38;0.77;;;19.80;56.20;;;;;;10574430;27;20456;-29
2022/11/22 16:42:28;;;;;;;3.45;1.17;;;19.90;56.80;;;;;;10574027;28;20064;-31
2022/11/22 16:47:30;;;;;;;4.78;1.20;;;19.90;56.20;;;;;;10572076;28;20051;-28
2022/11/22 16:52:33;;;;;;;1.70;0.60;;;19.90;56.20;;;;;;10568892;27;20067;-30
2022/11/22 16:57:35;;;;;;;3.33;1.40;;;19.80;56.60;;;;;;10572475;27;20043;-31
2022/11/22 17:02:38;;;;;;;1.35;0.80;;;19.90;56.40;;;;;;10563007;27;20051;-31
2022/11/22 17:07:41;;;;;;;2.00;1.10;;;19.80;56.70;;;;;;10560609;28;20572;-29
2022/11/22 17:12:43;;;;;;;2.35;0.93;;;19.70;56.90;;;;;;10568883;27;20062;-35
2022/11/22 17:17:45;;;;;;;4.53;0.90;;;19.70;57.00;;;;;;10573400;27;20051;-30
2022/11/22 17:22:48;;;;;;;1.65;0.70;;;19.60;57.20;;;;;;10569484;28;20075;-31
2022/11/22 17:27:52;;;;;;;13.63;1.00;;;19.80;57.20;;;;;;10566734;27;20142;-32
2022/11/22 17:32:54;;;;;;;2.90;1.00;;;19.60;57.30;;;;;;10572296;27;20560;-30
2022/11/22 17:37:58;;;;;;;4.97;1.10;;;19.50;57.50;;;;;;10573204;27;20408;-31
2022/11/22 17:43:00;;;;;;;5.15;1.00;;;19.60;57.40;;;;;;10574465;27;20275;-29
2022/11/22 17:48:02;;;;;;;1.60;1.05;;;19.70;57.40;;;;;;10573994;27;20101;-28
2022/11/22 17:53:06;;;;;;;3.63;1.25;;;19.20;58.20;;;;;;10575723;27;20134;-27
2022/11/22 17:58:08;;;;;;;7.32;1.30;;;19.40;58.30;;;;;;10586919;27;20036;-28
2022/11/22 18:03:10;;;;;;;6.18;0.95;;;19.50;57.80;;;;;;10572619;28;20073;-31
2022/11/22 18:08:15;;;;;;;6.88;1.58;;;19.70;57.50;;;;;;10578865;27;20520;-33
2022/11/22 18:13:17;;;;;;;2.78;0.80;;;19.80;57.40;;;;;;10574142;27;20146;-31
2022/11/22 18:18:19;;;;;;;9.13;1.90;;;19.80;57.60;;;;;;10581219;27;20079;-31
2022/11/22 18:23:23;;;;;;;2.70;1.33;;;19.70;57.80;;;;;;10579633;27;21272;-30
2022/11/22 18:28:25;;;;;;;5.47;1.92;;;19.60;57.90;;;;;;10576128;27;20055;-29
2022/11/22 18:33:27;;;;;;;7.63;2.70;;;19.30;58.80;;;;;;10563528;28;20078;-31
2022/11/22 18:38:31;;;;;;;6.53;2.65;;;19.40;57.70;;;;;;10571102;27;20621;-32
2022/11/22 18:43:32;;;;;;;9.48;3.33;;;19.30;59.10;;;;;;10576997;27;20127;-31
2022/11/22 18:48:35;;;;;;;11.50;3.00;;;19.40;58.70;;;;;;10571627;27;20448;-31
2022/11/22 18:53:40;;;;;;;6.20;2.30;;;19.30;59.00;;;;;;10577042;27;20075;-32
2022/11/22 18:58:42;;;;;;;7.38;2.85;;;19.50;58.40;;;;;;10578616;27;20124;-34
2022/11/22 19:03:44;;;;;;;5.47;1.70;;;19.30;59.10;;;;;;10582697;27;20043;-32
2022/11/22 19:08:48;;;;;;;6.07;1.83;;;19.50;58.20;;;;;;10572786;28;20079;-31
2022/11/22 19:13:50;;;;;;;4.20;1.30;;;19.20;59.10;;;;;;10569808;28;20043;-32
2022/11/22 19:18:52;;;;;;;2.90;1.60;;;19.60;58.10;;;;;;10575044;28;20507;-33
2022/11/22 19:23:56;;;;;;;3.55;1.20;;;19.60;58.00;;;;;;10572062;28;20043;-32
2022/11/22 19:29:01;;;;;;;6.10;1.90;;;19.50;57.90;;;;;;10575721;28;20046;-31
2022/11/22 19:34:03;;;;;;;5.45;1.58;;;19.60;57.90;;;;;;10574949;28;20081;-31
2022/11/22 19:39:12;;;;;;;5.82;1.25;;;19.20;57.80;;;;;;10581935;28;20144;-31
2022/11/22 19:44:13;;;;;;;5.35;1.33;;;19.40;58.50;;;;;;10570281;28;20483;-33
2022/11/22 19:49:15;;;;;;;4.63;1.60;;;19.40;58.60;;;;;;10573626;28;20039;-32
2022/11/22 19:54:18;;;;;;;5.20;1.40;;;18.90;59.70;;;;;;10571693;28;20059;-29
2022/11/22 19:59:20;;;;;;;6.07;1.55;;;19.00;59.70;;;;;;10569662;28;20128;-35
2022/11/22 20:04:22;;;;;;;8.70;1.83;;;19.20;59.40;;;;;;10569633;28;20083;-30
2022/11/22 20:09:25;;;;;;;5.05;1.17;;;19.40;59.10;;;;;;10579770;28;20047;-30
2022/11/22 20:14:27;;;;;;;6.88;1.67;;;19.20;59.10;;;;;;10572250;28;20139;-33
2022/11/22 20:19:29;;;;;;;3.05;1.42;;;18.90;60.00;;;;;;10570603;27;20071;-29
2022/11/22 20:24:32;;;;;;;8.77;1.50;;;19.10;59.40;;;;;;10572352;28;20044;-31
2022/11/22 20:29:34;;;;;;;11.60;2.70;;;19.00;60.10;;;;;;10586214;27;20476;-36
2022/11/22 20:34:36;;;;;;;6.65;1.75;;;17.50;63.90;;;;;;10587038;27;20809;-30
2022/11/22 20:39:39;;;;;;;5.40;1.83;;;18.20;62.60;;;;;;10578782;27;20067;-32
2022/11/22 20:44:41;;;;;;;11.90;1.75;;;18.10;63.30;;;;;;10584346;27;20389;-30
2022/11/22 20:49:43;;;;;;;6.10;1.97;;;17.60;66.10;;;;;;10582564;27;20134;-30
2022/11/22 20:54:46;;;;;;;5.55;1.58;;;18.30;61.40;;;;;;10571777;27;20538;-33
2022/11/22 20:59:48;;;;;;;6.45;1.65;;;18.70;62.20;;;;;;10578560;27;20131;-31
2022/11/22 21:04:50;;;;;;;5.13;2.15;;;18.40;62.30;;;;;;10572989;27;20044;-30
2022/11/22 21:09:53;;;;;;;7.80;1.60;;;18.30;61.00;;;;;;10578154;27;20081;-35
2022/11/22 21:14:55;;;;;;;9.60;1.80;;;17.80;65.50;;;;;;10572844;27;20858;-33
2022/11/22 21:19:57;;;;;;;6.80;1.13;;;17.10;67.90;;;;;;10581186;27;20047;-31
2022/11/22 21:25:00;;;;;;;8.07;2.28;;;18.90;61.10;;;;;;10583783;27;20144;-31
2022/11/22 21:30:03;;;;;;;6.00;2.28;;;17.50;64.60;;;;;;10577926;27;20127;-31
2022/11/22 21:35:05;;;;;;;7.00;2.70;;;17.80;62.70;;;;;;10580829;27;20050;-32
2022/11/22 21:40:10;;;;;;;5.63;2.78;;;17.00;68.90;;;;;;10578034;27;20449;-27
2022/11/22 21:45:12;;;;;;;4.20;1.25;;;17.70;64.80;;;;;;10579306;27;20043;-32
2022/11/22 21:50:15;;;;;;;5.77;1.80;;;17.50;66.10;;;;;;10579748;27;20088;-30
2022/11/22 21:55:18;;;;;;;;;;;18.30;62.70;;;;;;10578916;27;20507;-30
2022/11/22 22:00:19;;;;;;;;;;;17.80;61.60;;;;;;10569475;27;20350;-29
2022/11/22 22:05:22;;;;;;;4.28;1.05;;;18.30;63.40;;;;;;10574778;27;19987;-32
2022/11/22 22:10:25;;;;;;;5.93;1.13;;;17.80;65.10;;;;;;10576803;27;20126;-30
2022/11/22 22:15:27;;;;;;;3.05;1.30;;;18.80;61.40;;;;;;10570007;28;20128;-30
2022/11/22 22:20:28;;;;;;;4.95;1.70;;;18.80;61.00;;;;;;10573873;27;20036;-34
2022/11/22 22:25:32;;;;;;;4.40;2.37;;;18.50;62.20;;;;;;10576891;27;20556;-31
2022/11/22 22:30:34;;;;;;;3.58;1.50;;;18.20;62.60;;;;;;10581344;27;20566;-30
2022/11/22 22:35:36;;;;;;;4.60;1.30;;;17.60;66.60;;;;;;10573246;27;20500;-31
2022/11/22 22:40:39;;;;;;;6.63;1.10;;;18.70;61.70;;;;;;10578237;27;20047;-30
2022/11/22 22:45:41;;;;;;;9.38;1.40;;;18.70;61.40;;;;;;10555979;27;20468;-32
2022/11/22 22:50:43;;;;;;;5.78;1.17;;;18.80;60.80;;;;;;10568544;28;20446;-30
2022/11/22 22:55:53;;;;;;;5.60;1.65;;;18.50;62.00;;;;;;10565587;27;20140;-30
2022/11/22 23:00:55;;;;;;;4.68;1.48;;;16.60;71.30;;;;;;10572058;27;20069;-29
2022/11/22 23:05:57;;;;;;;7.90;1.20;;;17.10;69.30;;;;;;10570561;27;20075;-27
2022/11/22 23:11:04;;;;;;;7.40;3.08;;;16.90;69.70;;;;;;10560573;27;20132;-31
2022/11/22 23:16:08;;;;;;;6.75;2.17;;;16.70;69.40;;;;;;10569621;28;20055;-32
2022/11/22 23:21:12;;;;;;;7.00;1.40;;;17.30;67.50;;;;;;10567887;28;20131;-30
2022/11/22 23:26:15;;;;;;;5.00;1.33;;;17.40;68.10;;;;;;10569569;28;20067;-30
2022/11/22 23:31:17;;;;;;;3.95;1.23;;;18.40;63.30;;;;;;10570281;28;20438;-29
2022/11/22 23:36:21;;;;;;;7.63;2.23;;;18.10;64.80;;;;;;10567388;28;20131;-30
2022/11/22 23:41:25;;;;;;;4.10;1.73;;;16.60;72.10;;;;;;10569653;28;20047;-30
2022/11/22 23:46:27;;;;;;;7.30;1.92;;;15.60;77.00;;;;;;10566096;28;20048;-32
2022/11/22 23:51:30;;;;;;;;;;;13.90;87.00;;;;;;10569503;28;20536;-29
2022/11/22 23:56:35;;;;;;;4.43;1.00;;;16.50;75.30;;;;;;10571519;27;20379;-31
